SBOSBO OUL / EFOU
Speedbird OnlineSpeedbird Online OUL / EFOU

Oulu Airport
18:57 1°C

Location Oulu, Finland
Latitude: 64.930099487305
Longitude: 25.354600906372
Local Time 18:57 on 17 Apr 2024
UTC +3 hours (Europe/Helsinki)
Currency £1 equals EUR 1.17
METAR EFOU 171550Z AUTO 06010KT CAVOK 01/M14 Q1012
TAF TAF EFOU 171424Z 1715/1815 06009KT CAVOK
Weather As Of 17 Apr 2024 18:57
Description Clear sky
Wind 19 km/h from North-East (60°)
Cloud Cover 0%
Precipitation Rain: none, Snow: none
Sunrise 05:34
Sunset 21:01
NOTAM 2 active NOTAM
Rotations During the last 90 days there were
5 flights from HEL
55 flights to HEL
Web Airport Website | Wikipedia
Codes IATA: OUL
ICAO: EFOU
Altitude 14 Meter / 47 Feet
Distance 2,073 KM / 1,288 Miles
from London.
Runways
RunwayLength (m)Surface
122501Asphalt
302501Asphalt
Radio
TypeDescriptionFrequency
ATISATIS135.45
TWRTWR124.4
Live ATC



Support Speedbird Online

© 2017-2024 Speedbird Online